createdAt,value
2022-11-02T00:07:54.733Z,10.88
2022-11-02T00:18:01.829Z,8.65
2022-11-02T00:28:03.927Z,12.23
2022-11-02T00:38:07.560Z,10.50
2022-11-02T00:48:09.641Z,13.98
2022-11-02T00:58:12.972Z,10.98
2022-11-02T01:08:14.832Z,16.52
2022-11-02T01:18:18.227Z,5.43
2022-11-02T01:28:20.424Z,5.90
2022-11-02T01:38:24.132Z,5.25
2022-11-02T01:48:30.938Z,4.80
2022-11-02T01:58:34.439Z,12.25
2022-11-02T02:08:40.722Z,10.13
2022-11-02T02:18:48.631Z,11.55
2022-11-02T02:28:55.291Z,13.15
2022-11-02T02:39:03.216Z,10.02
2022-11-02T02:49:10.187Z,10.30
2022-11-02T02:59:20.494Z,13.63
2022-11-02T03:19:38.073Z,11.25
2022-11-02T03:29:48.951Z,13.90
2022-11-02T03:39:54.210Z,9.85
2022-11-02T03:49:58.595Z,12.48
2022-11-02T04:00:07.975Z,11.80
2022-11-02T04:10:11.360Z,9.43
2022-11-02T04:20:13.352Z,12.85
2022-11-02T04:30:18.771Z,7.53
2022-11-02T04:40:20.675Z,12.35
2022-11-02T04:50:23.928Z,12.13
2022-11-02T05:00:25.879Z,20.10
2022-11-02T05:10:29.147Z,11.38
2022-11-02T05:20:31.155Z,10.88
2022-11-02T05:30:35.650Z,14.55
2022-11-02T05:40:37.615Z,15.57
2022-11-02T05:50:40.876Z,10.20
2022-11-02T06:00:42.763Z,18.30
2022-11-02T06:10:46.015Z,11.40
2022-11-02T06:20:47.883Z,7.07
2022-11-02T06:30:51.311Z,10.20
2022-11-02T06:40:54.011Z,11.40
2022-11-02T06:50:57.859Z,15.82
2022-11-02T07:01:01.758Z,9.57
2022-11-02T07:11:05.480Z,11.07
2022-11-02T07:21:07.732Z,10.88
2022-11-02T07:31:11.075Z,16.30
2022-11-02T07:41:12.987Z,12.10
2022-11-02T07:51:16.422Z,16.30
2022-11-02T08:01:18.348Z,11.45
2022-11-02T08:11:21.702Z,11.85
2022-11-02T08:21:23.665Z,16.88
2022-11-02T08:31:26.936Z,17.92
2022-11-02T08:41:28.867Z,13.45
2022-11-02T08:51:32.148Z,16.20
2022-11-02T09:01:34.119Z,13.25
2022-11-02T09:11:37.410Z,10.70
2022-11-02T09:21:39.329Z,9.57
2022-11-02T09:31:42.692Z,10.95
2022-11-02T09:41:51.037Z,9.27
2022-11-02T09:51:56.821Z,12.73
2022-11-02T10:02:05.672Z,12.30
2022-11-02T10:12:13.010Z,19.70
2022-11-02T10:22:16.031Z,21.05
2022-11-02T10:32:19.340Z,13.15
2022-11-02T10:42:42.048Z,15.45
2022-11-02T10:52:46.879Z,16.15
2022-11-02T11:03:03.302Z,11.05
2022-11-02T11:23:40.719Z,11.32
2022-11-02T11:33:47.039Z,25.33
2022-11-02T11:43:51.193Z,17.08
2022-11-02T11:54:24.454Z,21.83
2022-11-02T12:04:37.423Z,19.70
2022-11-02T12:14:55.447Z,22.98
2022-11-02T12:25:12.555Z,24.02
2022-11-02T12:35:33.647Z,22.77
2022-11-02T12:45:44.739Z,19.67
2022-11-02T12:55:52.376Z,15.93
2022-11-02T13:06:00.139Z,20.47
2022-11-02T13:16:05.648Z,22.05
2022-11-02T13:26:12.338Z,22.55
2022-11-02T13:36:15.901Z,29.38
2022-11-02T13:46:33.246Z,28.83
2022-11-02T13:56:37.403Z,23.35
2022-11-02T14:06:51.775Z,22.48
2022-11-02T14:17:09.409Z,24.10
2022-11-02T14:27:29.907Z,23.60
2022-11-02T14:37:48.742Z,28.92
2022-11-02T14:47:57.461Z,21.15
2022-11-02T14:58:07.940Z,28.23
2022-11-02T15:08:23.753Z,34.42
2022-11-02T15:18:35.273Z,22.63
2022-11-02T15:28:37.644Z,17.10
2022-11-02T15:38:41.131Z,20.92
2022-11-02T15:48:51.614Z,12.85
2022-11-02T15:59:14.944Z,32.38
2022-11-02T16:09:32.595Z,40.80
2022-11-02T16:19:35.930Z,20.20
2022-11-02T16:29:37.949Z,25.52
2022-11-02T16:39:45.753Z,31.15
2022-11-02T17:01:01.638Z,22.13
2022-11-02T17:11:06.769Z,26.88
2022-11-02T17:21:29.922Z,25.55
2022-11-02T17:31:53.075Z,14.88
2022-11-02T17:41:57.913Z,25.30
2022-11-02T17:52:00.070Z,15.57
2022-11-02T18:03:11.108Z,19.48
2022-11-02T18:13:13.640Z,30.42
2022-11-02T18:23:17.632Z,17.27
2022-11-02T18:33:19.606Z,23.83
2022-11-02T18:43:22.867Z,24.30
2022-11-02T18:53:43.083Z,21.10
2022-11-02T19:03:48.834Z,14.00
2022-11-02T19:13:51.715Z,32.38
2022-11-02T19:23:55.478Z,21.60
2022-11-02T19:33:58.152Z,19.70
2022-11-02T19:44:01.668Z,23.33
2022-11-02T19:54:03.908Z,21.25
2022-11-02T20:04:07.250Z,28.77
2022-11-02T20:14:09.228Z,24.30
2022-11-02T20:24:12.691Z,23.85
2022-11-02T20:34:14.804Z,38.08
2022-11-02T20:44:18.058Z,28.33
2022-11-02T20:54:20.406Z,26.90
2022-11-02T21:04:23.712Z,22.35
2022-11-02T21:14:25.740Z,33.72
2022-11-02T21:24:29.397Z,26.17
2022-11-02T21:34:31.329Z,27.67
2022-11-02T21:44:35.070Z,31.17
2022-11-02T21:54:37.031Z,26.83
2022-11-02T22:04:40.328Z,25.27
2022-11-02T22:14:43.651Z,26.65
2022-11-02T22:24:46.982Z,20.92
2022-11-02T22:34:48.886Z,26.90
2022-11-02T22:44:52.341Z,24.67
2022-11-02T22:54:54.258Z,14.25
2022-11-02T23:04:57.548Z,12.23
2022-11-02T23:14:59.445Z,11.73
2022-11-02T23:25:04.211Z,16.13
2022-11-02T23:35:06.573Z,19.58
2022-11-02T23:45:11.506Z,16.30
2022-11-02T23:55:13.618Z,17.77
